createdAt,value
2023-05-25T00:00:11.175Z,4.30
2023-05-25T00:02:39.554Z,4.45
2023-05-25T00:05:09.156Z,4.55
2023-05-25T00:07:35.773Z,4.32
2023-05-25T00:10:02.359Z,4.32
2023-05-25T00:12:28.854Z,4.32
2023-05-25T00:14:55.395Z,4.53
2023-05-25T00:17:21.908Z,4.43
2023-05-25T00:19:48.672Z,4.63
2023-05-25T00:22:15.403Z,4.25
2023-05-25T00:24:41.890Z,4.43
2023-05-25T00:27:08.733Z,4.50
2023-05-25T00:29:36.244Z,4.47
2023-05-25T00:32:03.313Z,4.50
2023-05-25T00:34:29.735Z,5.40
2023-05-25T00:36:56.296Z,4.90
2023-05-25T00:39:22.971Z,4.68
2023-05-25T00:41:49.999Z,4.72
2023-05-25T00:44:21.298Z,5.28
2023-05-25T00:46:50.219Z,4.95
2023-05-25T00:49:19.121Z,5.20
2023-05-25T00:51:47.622Z,5.18
2023-05-25T00:54:16.023Z,4.95
2023-05-25T00:57:04.130Z,5.53
2023-05-25T00:59:40.756Z,4.78
2023-05-25T01:02:10.171Z,5.15
2023-05-25T01:04:42.244Z,4.85
2023-05-25T01:07:11.252Z,4.85
2023-05-25T01:09:40.732Z,5.30
2023-05-25T01:12:09.119Z,5.05
2023-05-25T01:14:39.676Z,5.25
2023-05-25T01:17:06.821Z,5.28
2023-05-25T01:19:35.793Z,5.60
2023-05-25T01:22:13.341Z,4.65
2023-05-25T01:24:46.692Z,5.25
2023-05-25T01:27:32.508Z,5.78
2023-05-25T01:29:59.969Z,5.72
2023-05-25T01:32:27.068Z,5.13
2023-05-25T01:34:56.652Z,4.95
2023-05-25T01:37:26.251Z,5.10
2023-05-25T01:39:52.768Z,5.40
2023-05-25T01:42:19.181Z,5.10
2023-05-25T01:44:45.767Z,5.60
2023-05-25T01:47:41.185Z,5.88
2023-05-25T01:50:24.026Z,4.78
2023-05-25T01:53:19.318Z,4.90
2023-05-25T01:56:08.438Z,5.25
2023-05-25T01:58:39.901Z,5.18
2023-05-25T02:01:09.541Z,5.10
2023-05-25T02:03:38.018Z,5.00
2023-05-25T02:06:04.731Z,5.63
2023-05-25T02:08:34.700Z,5.93
2023-05-25T02:11:01.518Z,5.72
2023-05-25T02:13:28.445Z,5.40
2023-05-25T02:15:55.063Z,5.70
2023-05-25T02:18:22.201Z,5.20
2023-05-25T02:20:48.830Z,5.50
2023-05-25T02:23:15.441Z,5.75
2023-05-25T02:25:42.750Z,5.25
2023-05-25T02:28:09.627Z,5.55
2023-05-25T02:30:36.263Z,5.88
2023-05-25T02:33:02.784Z,4.95
2023-05-25T02:35:29.418Z,5.15
2023-05-25T02:37:56.077Z,5.03
2023-05-25T02:40:22.676Z,5.43
2023-05-25T02:42:49.151Z,5.70
2023-05-25T02:45:16.843Z,4.80
2023-05-25T02:47:43.386Z,5.35
2023-05-25T02:50:10.148Z,5.70
2023-05-25T02:52:42.565Z,5.85
2023-05-25T02:55:13.589Z,5.32
2023-05-25T02:57:42.757Z,5.95
2023-05-25T03:00:12.364Z,5.60
2023-05-25T03:02:39.367Z,5.70
2023-05-25T03:05:06.433Z,5.90
2023-05-25T03:07:34.404Z,6.32
2023-05-25T03:10:00.913Z,5.50
2023-05-25T03:12:27.392Z,6.10
2023-05-25T03:14:53.948Z,6.35
2023-05-25T03:17:22.205Z,6.97
2023-05-25T03:19:48.780Z,6.20
2023-05-25T03:22:15.588Z,6.45
2023-05-25T03:24:44.934Z,5.97
2023-05-25T03:27:11.930Z,5.90
2023-05-25T03:29:38.710Z,6.63
2023-05-25T03:32:05.938Z,5.97
2023-05-25T03:34:35.239Z,5.63
2023-05-25T03:37:03.441Z,6.43
2023-05-25T03:39:30.380Z,5.63
2023-05-25T03:41:58.067Z,6.43
2023-05-25T03:44:25.232Z,5.78
2023-05-25T03:46:51.927Z,6.53
2023-05-25T03:49:18.465Z,5.90
2023-05-25T03:51:45.128Z,5.55
2023-05-25T03:54:13.372Z,5.82
2023-05-25T03:56:39.809Z,6.55
2023-05-25T03:59:06.441Z,5.88
2023-05-25T04:01:33.063Z,6.75
2023-05-25T04:04:00.149Z,6.60
2023-05-25T04:06:26.706Z,6.50
2023-05-25T04:08:53.172Z,6.63
2023-05-25T04:11:20.844Z,6.72
2023-05-25T04:13:47.285Z,6.80
2023-05-25T04:16:14.535Z,6.35
2023-05-25T04:18:41.545Z,6.60
2023-05-25T04:21:08.021Z,6.70
2023-05-25T04:23:34.532Z,6.63
2023-05-25T04:26:01.534Z,7.20
2023-05-25T04:28:28.290Z,6.85
2023-05-25T04:31:09.584Z,6.65
2023-05-25T04:33:49.853Z,6.95
2023-05-25T04:36:28.124Z,6.97
2023-05-25T04:38:55.315Z,6.53
2023-05-25T04:41:23.326Z,6.43
2023-05-25T04:44:06.918Z,6.57
2023-05-25T04:46:38.890Z,6.95
2023-05-25T04:49:08.196Z,7.07
2023-05-25T04:51:35.805Z,6.40
2023-05-25T04:54:02.824Z,6.97
2023-05-25T04:56:29.563Z,7.53
2023-05-25T04:58:57.044Z,6.97
2023-05-25T05:01:24.296Z,6.97
2023-05-25T05:03:58.970Z,7.00
2023-05-25T05:06:25.734Z,6.75
2023-05-25T05:08:52.355Z,7.30
2023-05-25T05:11:18.799Z,6.82
2023-05-25T05:13:45.440Z,7.43
2023-05-25T05:16:11.913Z,6.65
2023-05-25T05:18:39.533Z,7.50
2023-05-25T05:21:06.425Z,7.13
2023-05-25T05:23:34.730Z,8.13
2023-05-25T05:26:01.393Z,7.00
2023-05-25T05:28:29.853Z,6.63
2023-05-25T05:30:57.739Z,6.18
2023-05-25T05:33:25.171Z,6.22
2023-05-25T05:35:54.591Z,6.45
2023-05-25T05:38:22.289Z,7.10
2023-05-25T05:40:48.798Z,7.30
2023-05-25T05:43:20.276Z,6.88
2023-05-25T05:45:47.441Z,6.10
2023-05-25T05:48:14.326Z,5.85
2023-05-25T05:50:42.209Z,6.57
2023-05-25T05:53:11.044Z,7.07
2023-05-25T05:55:37.727Z,7.53
2023-05-25T05:58:04.370Z,9.25
2023-05-25T06:00:32.367Z,7.22
2023-05-25T06:03:00.209Z,8.13
2023-05-25T06:05:28.622Z,7.45
2023-05-25T06:07:56.078Z,8.05
2023-05-25T06:10:22.822Z,7.63
2023-05-25T06:12:50.694Z,7.43
2023-05-25T06:15:17.887Z,9.23
2023-05-25T06:17:46.615Z,8.02
2023-05-25T06:20:14.992Z,7.20
2023-05-25T06:22:42.205Z,7.60
2023-05-25T06:25:10.326Z,7.13
2023-05-25T06:27:37.704Z,7.28
2023-05-25T06:30:04.538Z,7.78
2023-05-25T06:32:31.063Z,7.47
2023-05-25T06:34:58.053Z,7.43
2023-05-25T06:37:24.547Z,7.38
2023-05-25T06:39:51.018Z,6.97
2023-05-25T06:42:18.273Z,7.20
2023-05-25T06:44:52.514Z,6.88
2023-05-25T06:47:19.545Z,7.50
2023-05-25T06:49:47.005Z,6.93
2023-05-25T06:52:13.475Z,7.45
2023-05-25T06:54:40.007Z,7.40
2023-05-25T06:57:06.674Z,7.90
2023-05-25T06:59:33.191Z,7.22
2023-05-25T07:02:00.299Z,7.45
2023-05-25T07:04:28.337Z,9.18
2023-05-25T07:06:54.823Z,8.93
2023-05-25T07:09:22.150Z,7.75
2023-05-25T07:11:48.861Z,8.48
2023-05-25T07:14:15.460Z,7.78
2023-05-25T07:16:42.015Z,7.80
2023-05-25T07:19:08.945Z,7.32
2023-05-25T07:21:36.465Z,6.85
2023-05-25T07:24:03.754Z,6.82
2023-05-25T07:26:32.082Z,8.15
2023-05-25T07:28:58.638Z,6.70
2023-05-25T07:31:25.131Z,8.95
2023-05-25T07:33:53.334Z,7.03
2023-05-25T07:36:19.814Z,6.72
2023-05-25T07:38:47.297Z,6.80
2023-05-25T07:41:13.807Z,6.68
2023-05-25T07:43:40.409Z,6.38
2023-05-25T07:46:06.855Z,7.00
2023-05-25T07:48:33.286Z,12.07
2023-05-25T07:50:59.702Z,11.38
2023-05-25T07:53:26.419Z,10.85
2023-05-25T07:55:52.842Z,10.50
2023-05-25T07:58:19.453Z,6.65
2023-05-25T08:00:45.892Z,5.53
2023-05-25T08:03:12.442Z,4.88
2023-05-25T08:05:39.917Z,5.18
2023-05-25T08:08:06.389Z,4.90
2023-05-25T08:10:32.941Z,5.65
2023-05-25T08:12:59.677Z,5.18
2023-05-25T08:15:26.578Z,5.18
2023-05-25T08:17:53.152Z,4.55
2023-05-25T08:20:19.668Z,5.10
2023-05-25T08:22:46.210Z,4.90
2023-05-25T08:25:12.853Z,4.78
2023-05-25T08:27:39.378Z,4.50
2023-05-25T08:30:06.528Z,3.97
2023-05-25T08:32:33.298Z,4.03
2023-05-25T08:34:59.881Z,3.45
2023-05-25T08:37:26.663Z,4.40
2023-05-25T08:39:53.580Z,4.28
2023-05-25T08:42:20.475Z,4.60
2023-05-25T08:44:47.196Z,4.45
2023-05-25T08:47:15.282Z,4.18
2023-05-25T08:49:44.509Z,4.00
2023-05-25T08:52:13.979Z,4.50
2023-05-25T08:54:44.155Z,4.32
2023-05-25T08:57:17.154Z,4.00
2023-05-25T09:00:13.113Z,4.10
2023-05-25T09:02:47.041Z,4.07
2023-05-25T09:05:13.667Z,4.05
2023-05-25T09:07:42.790Z,3.78
2023-05-25T09:10:11.149Z,3.42
2023-05-25T09:12:38.777Z,3.50
2023-05-25T09:15:06.083Z,4.03
2023-05-25T09:17:33.216Z,3.78
2023-05-25T09:20:01.064Z,3.28
2023-05-25T09:22:27.662Z,3.78
2023-05-25T09:24:54.971Z,3.38
2023-05-25T09:27:23.241Z,3.63
2023-05-25T09:29:50.973Z,3.58
2023-05-25T09:32:20.432Z,3.83
2023-05-25T09:34:47.607Z,3.50
2023-05-25T09:37:16.366Z,3.08
2023-05-25T09:39:44.354Z,3.50
2023-05-25T09:42:11.968Z,2.85
2023-05-25T09:44:42.709Z,3.08
2023-05-25T09:47:09.401Z,3.22
2023-05-25T09:49:36.366Z,3.85
2023-05-25T09:52:03.154Z,3.22
2023-05-25T09:54:29.653Z,4.22
2023-05-25T09:56:56.170Z,3.65
2023-05-25T09:59:23.050Z,3.10
2023-05-25T10:01:53.519Z,3.55
2023-05-25T10:04:20.903Z,3.10
2023-05-25T10:06:51.484Z,3.58
2023-05-25T10:09:19.488Z,3.55
2023-05-25T10:11:46.403Z,3.13
2023-05-25T10:14:15.915Z,4.00
2023-05-25T10:16:44.899Z,3.15
2023-05-25T10:19:37.578Z,3.25
2023-05-25T10:22:10.719Z,3.97
2023-05-25T10:24:46.304Z,3.70
2023-05-25T10:29:52.368Z,3.85
2023-05-25T10:32:19.059Z,3.47
2023-05-25T10:34:46.860Z,3.38
2023-05-25T10:37:14.439Z,3.70
2023-05-25T10:39:44.457Z,4.13
2023-05-25T10:42:12.918Z,3.30
2023-05-25T10:44:42.298Z,3.28
2023-05-25T10:47:09.781Z,3.85
2023-05-25T10:49:58.466Z,3.70
2023-05-25T10:52:29.641Z,4.07
2023-05-25T10:55:04.827Z,3.75
2023-05-25T10:57:31.449Z,3.60
2023-05-25T11:00:06.348Z,2.97
2023-05-25T11:02:55.832Z,3.60
2023-05-25T11:05:25.802Z,4.00
2023-05-25T11:07:53.800Z,3.25
2023-05-25T11:10:48.298Z,3.35
2023-05-25T11:13:32.236Z,3.30
2023-05-25T11:16:17.666Z,3.70
2023-05-25T11:18:58.845Z,3.80
2023-05-25T11:21:28.951Z,3.70
2023-05-25T11:24:12.278Z,3.88
2023-05-25T11:26:53.553Z,3.58
2023-05-25T11:29:20.808Z,3.28
2023-05-25T11:31:52.655Z,3.20
2023-05-25T11:34:21.698Z,3.28
2023-05-25T11:36:48.131Z,3.38
2023-05-25T11:39:22.376Z,3.20
2023-05-25T11:41:52.754Z,3.00
2023-05-25T11:44:31.102Z,3.60
2023-05-25T11:47:02.031Z,3.83
2023-05-25T11:49:28.990Z,2.53
2023-05-25T11:51:57.344Z,3.75
2023-05-25T11:54:28.984Z,3.28
2023-05-25T11:56:59.096Z,3.35
2023-05-25T11:59:28.744Z,3.92
2023-05-25T12:02:01.058Z,3.45
2023-05-25T12:04:29.135Z,3.58
2023-05-25T12:07:05.921Z,3.65
2023-05-25T12:09:33.142Z,3.88
2023-05-25T12:12:00.706Z,2.88
2023-05-25T12:14:27.220Z,3.13
2023-05-25T12:16:54.379Z,3.28
2023-05-25T12:19:21.773Z,2.92
2023-05-25T12:21:51.199Z,3.20
2023-05-25T12:24:18.269Z,3.33
2023-05-25T12:26:57.253Z,3.03
2023-05-25T12:29:25.113Z,2.80
2023-05-25T12:31:52.442Z,2.58
2023-05-25T12:34:20.164Z,2.65
2023-05-25T12:36:51.939Z,2.70
2023-05-25T12:39:30.536Z,3.17
2023-05-25T12:41:59.218Z,2.55
2023-05-25T12:44:33.063Z,3.33
2023-05-25T12:47:24.948Z,2.50
2023-05-25T12:49:53.574Z,3.00
2023-05-25T12:52:36.808Z,2.83
2023-05-25T12:55:18.548Z,2.70
2023-05-25T12:57:46.957Z,2.90
2023-05-25T13:00:14.020Z,2.75
2023-05-25T13:02:48.788Z,2.22
2023-05-25T13:05:24.297Z,2.90
2023-05-25T13:07:52.173Z,2.13
2023-05-25T13:10:18.912Z,2.33
2023-05-25T13:12:47.715Z,2.80
2023-05-25T13:15:17.550Z,2.50
2023-05-25T13:17:45.081Z,2.28
2023-05-25T13:20:13.756Z,2.20
2023-05-25T13:22:42.607Z,1.88
2023-05-25T13:25:10.751Z,2.03
2023-05-25T13:27:37.998Z,2.97
2023-05-25T13:30:06.223Z,2.00
2023-05-25T13:32:34.032Z,1.98
2023-05-25T13:35:01.042Z,2.00
2023-05-25T13:37:30.449Z,2.78
2023-05-25T13:39:58.168Z,2.33
2023-05-25T13:42:24.630Z,2.38
2023-05-25T13:44:51.139Z,2.10
2023-05-25T13:47:18.345Z,2.33
2023-05-25T13:49:44.851Z,2.20
2023-05-25T13:52:11.449Z,2.38
2023-05-25T13:54:37.954Z,2.20
2023-05-25T13:57:04.700Z,2.05
2023-05-25T13:59:31.190Z,2.28
2023-05-25T14:01:57.785Z,1.98
2023-05-25T14:04:24.493Z,2.22
2023-05-25T14:09:17.980Z,2.40
2023-05-25T14:11:44.388Z,2.05
2023-05-25T14:14:23.281Z,2.50
2023-05-25T14:16:56.976Z,2.33
2023-05-25T14:19:23.482Z,2.50
2023-05-25T14:22:03.900Z,2.13
2023-05-25T14:24:36.376Z,2.22
2023-05-25T14:27:03.167Z,2.63
2023-05-25T14:29:29.699Z,2.47
2023-05-25T14:31:56.378Z,2.45
2023-05-25T14:34:22.961Z,3.03
2023-05-25T14:36:49.810Z,2.58
2023-05-25T14:39:17.466Z,2.85
2023-05-25T14:41:44.223Z,2.28
2023-05-25T14:44:11.151Z,2.15
2023-05-25T14:46:38.080Z,2.05
2023-05-25T14:49:04.779Z,2.10
2023-05-25T14:51:31.242Z,2.22
2023-05-25T14:54:00.314Z,2.10
2023-05-25T14:56:27.482Z,2.15
2023-05-25T14:58:53.902Z,2.13
2023-05-25T15:01:23.694Z,1.88
2023-05-25T15:03:52.308Z,2.13
2023-05-25T15:06:19.487Z,2.03
2023-05-25T15:08:46.146Z,2.03
2023-05-25T15:11:12.604Z,2.17
2023-05-25T15:13:40.579Z,2.10
2023-05-25T15:16:11.655Z,1.85
2023-05-25T15:18:38.844Z,2.15
2023-05-25T15:21:05.563Z,2.33
2023-05-25T15:23:32.078Z,2.53
2023-05-25T15:26:03.000Z,2.47
2023-05-25T15:28:32.241Z,2.40
2023-05-25T15:31:01.708Z,2.13
2023-05-25T15:33:39.906Z,2.47
2023-05-25T15:36:14.769Z,2.22
2023-05-25T15:38:43.086Z,1.80
2023-05-25T15:41:09.575Z,2.42
2023-05-25T15:43:35.989Z,2.13
2023-05-25T15:46:02.583Z,2.22
2023-05-25T15:48:29.008Z,2.10
2023-05-25T15:50:55.460Z,2.58
2023-05-25T15:53:22.008Z,2.53
2023-05-25T15:55:48.768Z,2.15
2023-05-25T15:58:16.616Z,2.25
2023-05-25T16:00:43.076Z,2.63
2023-05-25T16:03:09.531Z,2.40
2023-05-25T16:05:36.003Z,1.98
2023-05-25T16:08:02.472Z,2.13
2023-05-25T16:10:28.890Z,2.58
2023-05-25T16:12:55.336Z,2.40
2023-05-25T16:15:23.557Z,3.05
2023-05-25T16:17:50.010Z,2.60
2023-05-25T16:20:16.493Z,2.72
2023-05-25T16:22:43.051Z,2.50
2023-05-25T16:25:09.695Z,2.50
2023-05-25T16:27:36.216Z,2.05
2023-05-25T16:30:02.754Z,3.05
2023-05-25T16:32:29.556Z,2.53
2023-05-25T16:34:56.265Z,2.03
2023-05-25T16:37:22.730Z,2.45
2023-05-25T16:39:49.168Z,2.45
2023-05-25T16:42:15.670Z,3.03
2023-05-25T16:44:42.089Z,2.53
2023-05-25T16:47:08.539Z,3.00
2023-05-25T16:49:34.944Z,2.55
2023-05-25T16:52:05.118Z,2.78
2023-05-25T16:54:31.643Z,2.50
2023-05-25T16:56:58.629Z,2.63
2023-05-25T16:59:25.038Z,3.30
2023-05-25T17:01:51.905Z,2.80
2023-05-25T17:04:18.437Z,3.08
2023-05-25T17:06:44.867Z,2.42
2023-05-25T17:09:11.901Z,3.15
2023-05-25T17:11:38.444Z,3.22
2023-05-25T17:14:04.921Z,2.83
2023-05-25T17:16:31.570Z,2.55
2023-05-25T17:18:58.136Z,3.00
2023-05-25T17:21:24.561Z,3.58
2023-05-25T17:23:50.992Z,2.58
2023-05-25T17:26:17.443Z,2.95
2023-05-25T17:28:44.120Z,3.17
2023-05-25T17:31:10.706Z,3.13
2023-05-25T17:33:38.720Z,3.13
2023-05-25T17:36:05.719Z,3.33
2023-05-25T17:38:34.291Z,3.00
2023-05-25T17:41:00.788Z,3.15
2023-05-25T17:43:27.751Z,3.03
2023-05-25T17:45:54.220Z,3.03
2023-05-25T17:48:20.725Z,3.55
2023-05-25T17:50:47.157Z,4.28
2023-05-25T17:53:13.716Z,3.83
2023-05-25T17:55:40.473Z,3.45
2023-05-25T17:58:07.395Z,3.50
2023-05-25T18:00:34.401Z,3.40
2023-05-25T18:03:01.034Z,2.88
2023-05-25T18:05:27.697Z,3.25
2023-05-25T18:07:54.142Z,3.72
2023-05-25T18:10:20.584Z,3.20
2023-05-25T18:12:49.119Z,3.95
2023-05-25T18:15:15.696Z,3.33
2023-05-25T18:17:42.264Z,3.67
2023-05-25T18:20:09.459Z,4.10
2023-05-25T18:22:36.340Z,4.60
2023-05-25T18:25:03.685Z,3.63
2023-05-25T18:27:30.161Z,3.28
2023-05-25T18:29:56.625Z,3.42
2023-05-25T18:32:23.609Z,4.50
2023-05-25T18:34:50.271Z,4.05
2023-05-25T18:37:16.782Z,3.97
2023-05-25T18:39:43.267Z,4.45
2023-05-25T18:42:09.686Z,4.13
2023-05-25T18:44:36.518Z,3.70
2023-05-25T18:47:02.954Z,4.53
2023-05-25T18:49:34.335Z,3.88
2023-05-25T18:52:01.483Z,4.47
2023-05-25T18:54:28.070Z,4.10
2023-05-25T18:56:55.444Z,3.80
2023-05-25T18:59:21.928Z,4.22
2023-05-25T19:01:48.394Z,3.85
2023-05-25T19:04:15.402Z,4.05
2023-05-25T19:06:41.893Z,4.03
2023-05-25T19:09:08.623Z,3.70
2023-05-25T19:11:35.192Z,4.13
2023-05-25T19:14:01.754Z,4.10
2023-05-25T19:16:28.253Z,4.10
2023-05-25T19:18:54.771Z,4.30
2023-05-25T19:21:21.193Z,3.72
2023-05-25T19:23:47.610Z,3.92
2023-05-25T19:26:14.321Z,3.30
2023-05-25T19:28:40.736Z,4.10
2023-05-25T19:31:07.223Z,4.05
2023-05-25T19:33:33.779Z,4.47
2023-05-25T19:36:00.224Z,4.15
2023-05-25T19:38:34.284Z,4.25
2023-05-25T19:41:07.289Z,4.40
2023-05-25T19:43:33.823Z,4.00
2023-05-25T19:46:00.312Z,3.95
2023-05-25T19:48:27.551Z,4.40
2023-05-25T19:50:54.355Z,4.10
2023-05-25T19:53:20.876Z,4.13
2023-05-25T19:55:47.305Z,4.63
2023-05-25T19:58:13.756Z,4.13
2023-05-25T20:00:40.332Z,4.80
2023-05-25T20:03:07.162Z,4.50
2023-05-25T20:05:33.711Z,4.38
2023-05-25T20:08:00.566Z,5.00
2023-05-25T20:10:27.054Z,4.75
2023-05-25T20:12:53.535Z,4.70
2023-05-25T20:15:20.043Z,5.85
2023-05-25T20:17:46.477Z,5.03
2023-05-25T20:20:13.085Z,5.05
2023-05-25T20:22:39.626Z,4.30
2023-05-25T20:25:06.592Z,4.20
2023-05-25T20:27:33.507Z,4.50
2023-05-25T20:29:59.934Z,4.80
2023-05-25T20:32:26.462Z,5.20
2023-05-25T20:34:52.917Z,4.63
2023-05-25T20:37:19.337Z,5.93
2023-05-25T20:39:45.802Z,4.30
2023-05-25T20:42:13.897Z,5.10
2023-05-25T20:44:40.443Z,4.90
2023-05-25T20:47:07.265Z,5.18
2023-05-25T20:49:33.692Z,5.07
2023-05-25T20:52:00.485Z,4.68
2023-05-25T20:54:27.029Z,5.72
2023-05-25T20:56:53.549Z,5.97
2023-05-25T20:59:20.088Z,5.45
2023-05-25T21:01:46.563Z,5.30
2023-05-25T21:04:13.055Z,5.43
2023-05-25T21:06:39.984Z,5.50
2023-05-25T21:09:06.518Z,5.50
2023-05-25T21:11:33.161Z,5.25
2023-05-25T21:13:59.615Z,5.47
2023-05-25T21:16:26.178Z,6.28
2023-05-25T21:18:52.598Z,5.47
2023-05-25T21:21:19.063Z,5.70
2023-05-25T21:23:45.556Z,5.22
2023-05-25T21:26:12.006Z,6.32
2023-05-25T21:28:38.460Z,5.10
2023-05-25T21:31:05.051Z,4.93
2023-05-25T21:33:35.616Z,6.45
2023-05-25T21:36:02.836Z,5.82
2023-05-25T21:38:29.572Z,5.40
2023-05-25T21:40:56.044Z,5.90
2023-05-25T21:43:22.522Z,5.57
2023-05-25T21:45:49.015Z,5.30
2023-05-25T21:48:15.477Z,6.22
2023-05-25T21:50:42.027Z,5.60
2023-05-25T21:53:08.445Z,5.38
2023-05-25T21:55:34.899Z,5.68
2023-05-25T21:58:01.352Z,5.75
2023-05-25T22:00:29.232Z,5.85
2023-05-25T22:02:56.163Z,6.20
2023-05-25T22:05:23.225Z,5.93
2023-05-25T22:07:49.705Z,7.90
2023-05-25T22:10:16.186Z,6.00
2023-05-25T22:12:42.656Z,5.30
2023-05-25T22:15:09.474Z,5.43
2023-05-25T22:17:36.014Z,5.47
2023-05-25T22:22:32.048Z,6.25
2023-05-25T22:24:58.521Z,5.28
2023-05-25T22:27:24.975Z,5.20
2023-05-25T22:29:51.726Z,5.25
2023-05-25T22:32:18.151Z,5.43
2023-05-25T22:34:44.631Z,4.60
2023-05-25T22:37:11.524Z,5.15
2023-05-25T22:39:37.965Z,5.88
2023-05-25T22:42:04.733Z,6.10
2023-05-25T22:44:31.169Z,4.80
2023-05-25T22:46:57.634Z,5.95
2023-05-25T22:49:24.066Z,5.25
2023-05-25T22:51:50.512Z,5.70
2023-05-25T22:54:19.245Z,5.72
2023-05-25T22:56:45.863Z,5.30
2023-05-25T22:59:13.146Z,5.97
2023-05-25T23:01:39.602Z,5.25
2023-05-25T23:04:06.268Z,6.32
2023-05-25T23:06:32.792Z,6.55
2023-05-25T23:08:59.262Z,6.07
2023-05-25T23:11:27.003Z,6.15
2023-05-25T23:13:54.622Z,5.30
2023-05-25T23:16:21.246Z,5.65
2023-05-25T23:18:47.742Z,4.93
2023-05-25T23:21:14.282Z,5.82
2023-05-25T23:23:41.194Z,5.93
2023-05-25T23:26:07.763Z,5.72
2023-05-25T23:28:34.401Z,4.93
2023-05-25T23:31:01.488Z,4.78
2023-05-25T23:33:29.112Z,5.43
2023-05-25T23:35:55.701Z,5.03
2023-05-25T23:38:22.220Z,5.95
2023-05-25T23:40:48.823Z,4.63
2023-05-25T23:43:16.242Z,5.13
2023-05-25T23:45:42.910Z,5.57
2023-05-25T23:48:09.604Z,5.40
2023-05-25T23:50:36.138Z,5.35
2023-05-25T23:53:02.555Z,6.25
2023-05-25T23:55:28.982Z,5.47
2023-05-25T23:57:55.392Z,5.03
